EGEC/CAL METAR and TAF weather

Enter ICAO airport designator
Station Type Date Time Source
EGEC METAR 2019/08/19 07:50 UTC NOAA

EGEC 190750Z 24014KT 9999 SCT015 13/11 Q1005


Station Type Date Time Source
EGEC Decoded METAR 2019/08/19 07:50 UTC NOAA

Station name not available
Aug 19, 2019 - 03:50 AM EDT / 2019.08.19 0750 UTC
Wind: from the WSW (240 degrees) at 16 MPH (14 KT):0
Visibility: greater than 7 mile(s):0
Sky conditions: partly cloudy
Temperature: 55 F (13 C)
Dew Point: 51 F (11 C)
Relative Humidity: 87%
Pressure (altimeter): 29.68 in. Hg (1005 hPa)
ob: EGEC 190750Z 24014KT 9999 SCT015 13/11 Q1005
cycle: 8

Station Type Date Time Source
EGEC TAF UTC NOAA

Error!

Example: see airport list